sensor_id;sensor_type;location;lat;lon;timestamp;P1;durP1;ratioP1;P2;durP2;ratioP2
57800;SDS011;43627;42.728;23.256;2023-04-25T00:02:11;2.40;;;1.40;;
57800;SDS011;43627;42.728;23.256;2023-04-25T00:04:38;3.63;;;1.92;;
57800;SDS011;43627;42.728;23.256;2023-04-25T00:07:06;2.97;;;1.88;;
57800;SDS011;43627;42.728;23.256;2023-04-25T00:09:33;2.55;;;2.22;;
57800;SDS011;43627;42.728;23.256;2023-04-25T00:12:00;6.03;;;2.20;;
57800;SDS011;43627;42.728;23.256;2023-04-25T00:14:28;4.72;;;3.63;;
57800;SDS011;43627;42.728;23.256;2023-04-25T00:16:55;8.23;;;2.40;;
57800;SDS011;43627;42.728;23.256;2023-04-25T00:19:22;6.97;;;3.03;;
57800;SDS011;43627;42.728;23.256;2023-04-25T00:21:48;3.85;;;2.85;;
57800;SDS011;43627;42.728;23.256;2023-04-25T00:24:15;4.80;;;2.60;;
57800;SDS011;43627;42.728;23.256;2023-04-25T00:26:42;4.38;;;2.00;;
57800;SDS011;43627;42.728;23.256;2023-04-25T00:29:09;4.32;;;1.70;;
57800;SDS011;43627;42.728;23.256;2023-04-25T00:31:35;7.80;;;2.20;;
57800;SDS011;43627;42.728;23.256;2023-04-25T00:34:02;2.35;;;1.45;;
57800;SDS011;43627;42.728;23.256;2023-04-25T00:36:29;1.77;;;1.20;;
57800;SDS011;43627;42.728;23.256;2023-04-25T00:38:56;1.55;;;1.17;;
57800;SDS011;43627;42.728;23.256;2023-04-25T00:41:23;4.93;;;1.90;;
57800;SDS011;43627;42.728;23.256;2023-04-25T00:43:52;3.03;;;1.42;;
57800;SDS011;43627;42.728;23.256;2023-04-25T00:46:20;2.78;;;1.95;;
57800;SDS011;43627;42.728;23.256;2023-04-25T00:48:47;2.50;;;1.20;;
57800;SDS011;43627;42.728;23.256;2023-04-25T00:51:15;3.22;;;0.93;;
57800;SDS011;43627;42.728;23.256;2023-04-25T00:53:45;2.83;;;1.27;;
57800;SDS011;43627;42.728;23.256;2023-04-25T00:56:14;1.15;;;0.95;;
57800;SDS011;43627;42.728;23.256;2023-04-25T00:58:41;0.80;;;0.68;;
57800;SDS011;43627;42.728;23.256;2023-04-25T01:01:09;1.10;;;0.75;;
57800;SDS011;43627;42.728;23.256;2023-04-25T01:03:39;2.90;;;1.40;;
57800;SDS011;43627;42.728;23.256;2023-04-25T01:06:10;2.25;;;1.50;;
57800;SDS011;43627;42.728;23.256;2023-04-25T01:08:38;3.58;;;2.08;;
57800;SDS011;43627;42.728;23.256;2023-04-25T01:11:05;3.90;;;1.90;;
57800;SDS011;43627;42.728;23.256;2023-04-25T01:13:33;5.57;;;2.33;;
57800;SDS011;43627;42.728;23.256;2023-04-25T01:16:00;4.18;;;2.72;;
57800;SDS011;43627;42.728;23.256;2023-04-25T01:18:28;6.78;;;2.83;;
57800;SDS011;43627;42.728;23.256;2023-04-25T01:20:55;3.63;;;2.60;;
57800;SDS011;43627;42.728;23.256;2023-04-25T01:23:24;4.72;;;3.28;;
57800;SDS011;43627;42.728;23.256;2023-04-25T01:25:51;4.82;;;3.58;;
57800;SDS011;43627;42.728;23.256;2023-04-25T01:28:19;7.57;;;3.50;;
57800;SDS011;43627;42.728;23.256;2023-04-25T01:30:46;6.57;;;3.55;;
57800;SDS011;43627;42.728;23.256;2023-04-25T01:33:13;7.57;;;4.00;;
57800;SDS011;43627;42.728;23.256;2023-04-25T01:35:41;10.80;;;4.88;;
57800;SDS011;43627;42.728;23.256;2023-04-25T01:38:14;8.93;;;4.78;;
57800;SDS011;43627;42.728;23.256;2023-04-25T01:40:42;7.53;;;5.15;;
57800;SDS011;43627;42.728;23.256;2023-04-25T01:43:19;10.07;;;5.78;;
57800;SDS011;43627;42.728;23.256;2023-04-25T01:45:51;9.32;;;5.50;;
57800;SDS011;43627;42.728;23.256;2023-04-25T01:48:22;9.95;;;5.45;;
57800;SDS011;43627;42.728;23.256;2023-04-25T01:50:53;8.95;;;5.65;;
57800;SDS011;43627;42.728;23.256;2023-04-25T01:53:21;9.73;;;5.80;;
57800;SDS011;43627;42.728;23.256;2023-04-25T01:55:55;12.15;;;5.97;;
57800;SDS011;43627;42.728;23.256;2023-04-25T01:58:45;11.90;;;5.65;;
57800;SDS011;43627;42.728;23.256;2023-04-25T02:01:14;12.77;;;6.50;;
57800;SDS011;43627;42.728;23.256;2023-04-25T02:03:46;9.88;;;6.63;;
57800;SDS011;43627;42.728;23.256;2023-04-25T02:06:23;10.27;;;7.00;;
57800;SDS011;43627;42.728;23.256;2023-04-25T02:08:50;11.23;;;6.40;;
57800;SDS011;43627;42.728;23.256;2023-04-25T02:11:16;9.20;;;5.78;;
57800;SDS011;43627;42.728;23.256;2023-04-25T02:13:44;13.43;;;6.18;;
57800;SDS011;43627;42.728;23.256;2023-04-25T02:16:10;9.85;;;6.10;;
57800;SDS011;43627;42.728;23.256;2023-04-25T02:18:37;11.82;;;7.43;;
57800;SDS011;43627;42.728;23.256;2023-04-25T02:21:05;10.32;;;6.20;;
57800;SDS011;43627;42.728;23.256;2023-04-25T02:23:32;9.80;;;6.13;;
57800;SDS011;43627;42.728;23.256;2023-04-25T02:25:59;12.90;;;6.13;;
57800;SDS011;43627;42.728;23.256;2023-04-25T02:28:26;9.27;;;5.85;;
57800;SDS011;43627;42.728;23.256;2023-04-25T02:30:53;11.65;;;6.72;;
57800;SDS011;43627;42.728;23.256;2023-04-25T02:33:20;9.23;;;6.05;;
57800;SDS011;43627;42.728;23.256;2023-04-25T02:35:47;11.48;;;6.22;;
57800;SDS011;43627;42.728;23.256;2023-04-25T02:38:14;13.23;;;7.18;;
57800;SDS011;43627;42.728;23.256;2023-04-25T02:40:41;12.13;;;6.75;;
57800;SDS011;43627;42.728;23.256;2023-04-25T02:43:08;12.05;;;7.60;;
57800;SDS011;43627;42.728;23.256;2023-04-25T02:45:36;12.07;;;7.57;;
57800;SDS011;43627;42.728;23.256;2023-04-25T02:48:05;11.88;;;7.25;;
57800;SDS011;43627;42.728;23.256;2023-04-25T02:50:34;11.30;;;6.63;;
57800;SDS011;43627;42.728;23.256;2023-04-25T02:53:01;14.25;;;8.35;;
57800;SDS011;43627;42.728;23.256;2023-04-25T02:55:27;15.90;;;8.65;;
57800;SDS011;43627;42.728;23.256;2023-04-25T02:57:54;15.07;;;8.77;;
57800;SDS011;43627;42.728;23.256;2023-04-25T03:00:24;14.68;;;8.23;;
57800;SDS011;43627;42.728;23.256;2023-04-25T03:02:51;14.85;;;8.90;;
57800;SDS011;43627;42.728;23.256;2023-04-25T03:05:21;21.42;;;9.57;;
57800;SDS011;43627;42.728;23.256;2023-04-25T03:07:48;18.17;;;10.13;;
57800;SDS011;43627;42.728;23.256;2023-04-25T03:10:15;15.25;;;8.93;;
57800;SDS011;43627;42.728;23.256;2023-04-25T03:12:42;14.32;;;7.97;;
57800;SDS011;43627;42.728;23.256;2023-04-25T03:15:08;14.90;;;8.02;;
57800;SDS011;43627;42.728;23.256;2023-04-25T03:17:36;13.35;;;7.65;;
57800;SDS011;43627;42.728;23.256;2023-04-25T03:20:03;17.50;;;8.90;;
57800;SDS011;43627;42.728;23.256;2023-04-25T03:22:30;10.02;;;6.85;;
57800;SDS011;43627;42.728;23.256;2023-04-25T03:24:57;13.95;;;8.15;;
57800;SDS011;43627;42.728;23.256;2023-04-25T03:27:24;16.20;;;8.05;;
57800;SDS011;43627;42.728;23.256;2023-04-25T03:29:51;15.40;;;7.75;;
57800;SDS011;43627;42.728;23.256;2023-04-25T03:32:17;13.02;;;7.85;;
57800;SDS011;43627;42.728;23.256;2023-04-25T03:34:44;14.95;;;8.63;;
57800;SDS011;43627;42.728;23.256;2023-04-25T03:37:11;17.90;;;9.27;;
57800;SDS011;43627;42.728;23.256;2023-04-25T03:39:38;13.40;;;8.30;;
57800;SDS011;43627;42.728;23.256;2023-04-25T03:42:06;18.35;;;9.40;;
57800;SDS011;43627;42.728;23.256;2023-04-25T03:44:33;18.08;;;9.43;;
57800;SDS011;43627;42.728;23.256;2023-04-25T03:47:00;19.65;;;10.07;;
57800;SDS011;43627;42.728;23.256;2023-04-25T03:49:29;19.10;;;9.77;;
57800;SDS011;43627;42.728;23.256;2023-04-25T03:51:56;19.95;;;9.40;;
57800;SDS011;43627;42.728;23.256;2023-04-25T03:54:23;22.85;;;10.18;;
57800;SDS011;43627;42.728;23.256;2023-04-25T03:56:49;18.40;;;9.48;;
57800;SDS011;43627;42.728;23.256;2023-04-25T03:59:16;20.42;;;10.45;;
57800;SDS011;43627;42.728;23.256;2023-04-25T04:01:43;15.48;;;8.73;;
57800;SDS011;43627;42.728;23.256;2023-04-25T04:04:10;11.40;;;6.82;;
57800;SDS011;43627;42.728;23.256;2023-04-25T04:06:37;17.13;;;7.38;;
57800;SDS011;43627;42.728;23.256;2023-04-25T04:09:06;12.55;;;7.25;;
57800;SDS011;43627;42.728;23.256;2023-04-25T04:11:37;13.43;;;5.95;;
57800;SDS011;43627;42.728;23.256;2023-04-25T04:14:06;10.88;;;6.15;;
57800;SDS011;43627;42.728;23.256;2023-04-25T04:16:33;14.93;;;7.07;;
57800;SDS011;43627;42.728;23.256;2023-04-25T04:19:00;12.93;;;6.90;;
57800;SDS011;43627;42.728;23.256;2023-04-25T04:21:27;9.77;;;6.78;;
57800;SDS011;43627;42.728;23.256;2023-04-25T04:23:54;8.93;;;6.07;;
57800;SDS011;43627;42.728;23.256;2023-04-25T04:26:21;9.65;;;6.75;;
57800;SDS011;43627;42.728;23.256;2023-04-25T04:28:54;13.10;;;7.70;;
57800;SDS011;43627;42.728;23.256;2023-04-25T04:31:21;14.32;;;7.10;;
57800;SDS011;43627;42.728;23.256;2023-04-25T04:33:49;13.30;;;7.82;;
57800;SDS011;43627;42.728;23.256;2023-04-25T04:36:17;13.55;;;8.10;;
57800;SDS011;43627;42.728;23.256;2023-04-25T04:38:49;14.83;;;7.40;;
57800;SDS011;43627;42.728;23.256;2023-04-25T04:41:20;11.95;;;7.22;;
57800;SDS011;43627;42.728;23.256;2023-04-25T04:43:47;14.50;;;7.47;;
57800;SDS011;43627;42.728;23.256;2023-04-25T04:46:14;18.50;;;7.45;;
57800;SDS011;43627;42.728;23.256;2023-04-25T04:48:41;14.60;;;8.13;;
57800;SDS011;43627;42.728;23.256;2023-04-25T04:51:07;15.60;;;8.05;;
57800;SDS011;43627;42.728;23.256;2023-04-25T04:53:34;14.35;;;8.35;;
57800;SDS011;43627;42.728;23.256;2023-04-25T04:56:01;13.77;;;7.32;;
57800;SDS011;43627;42.728;23.256;2023-04-25T04:58:27;9.90;;;6.47;;
57800;SDS011;43627;42.728;23.256;2023-04-25T05:00:56;10.75;;;6.63;;
57800;SDS011;43627;42.728;23.256;2023-04-25T05:03:23;11.32;;;7.45;;
57800;SDS011;43627;42.728;23.256;2023-04-25T05:05:50;15.77;;;8.15;;
57800;SDS011;43627;42.728;23.256;2023-04-25T05:08:17;13.25;;;7.28;;
57800;SDS011;43627;42.728;23.256;2023-04-25T05:10:43;13.27;;;7.82;;
57800;SDS011;43627;42.728;23.256;2023-04-25T05:13:10;10.02;;;6.35;;
57800;SDS011;43627;42.728;23.256;2023-04-25T05:15:37;8.57;;;5.65;;
57800;SDS011;43627;42.728;23.256;2023-04-25T05:18:04;9.55;;;5.35;;
57800;SDS011;43627;42.728;23.256;2023-04-25T05:20:31;10.15;;;4.63;;
57800;SDS011;43627;42.728;23.256;2023-04-25T05:22:57;7.50;;;5.25;;
57800;SDS011;43627;42.728;23.256;2023-04-25T05:25:24;7.00;;;4.43;;
57800;SDS011;43627;42.728;23.256;2023-04-25T05:27:50;7.53;;;3.90;;
57800;SDS011;43627;42.728;23.256;2023-04-25T05:30:18;7.88;;;4.32;;
57800;SDS011;43627;42.728;23.256;2023-04-25T05:32:45;5.65;;;3.38;;
57800;SDS011;43627;42.728;23.256;2023-04-25T05:35:13;5.70;;;3.60;;
57800;SDS011;43627;42.728;23.256;2023-04-25T05:37:39;6.47;;;3.17;;
57800;SDS011;43627;42.728;23.256;2023-04-25T05:40:07;6.63;;;3.95;;
57800;SDS011;43627;42.728;23.256;2023-04-25T05:42:34;7.95;;;4.25;;
57800;SDS011;43627;42.728;23.256;2023-04-25T05:45:01;8.25;;;4.43;;
57800;SDS011;43627;42.728;23.256;2023-04-25T05:47:28;9.77;;;5.25;;
57800;SDS011;43627;42.728;23.256;2023-04-25T05:49:55;9.35;;;4.90;;
57800;SDS011;43627;42.728;23.256;2023-04-25T05:52:22;5.47;;;4.00;;
57800;SDS011;43627;42.728;23.256;2023-04-25T05:54:48;5.50;;;4.00;;
57800;SDS011;43627;42.728;23.256;2023-04-25T05:57:25;10.15;;;4.93;;
57800;SDS011;43627;42.728;23.256;2023-04-25T05:59:53;7.75;;;4.72;;
57800;SDS011;43627;42.728;23.256;2023-04-25T06:02:20;11.55;;;5.25;;
57800;SDS011;43627;42.728;23.256;2023-04-25T06:04:49;14.75;;;5.65;;
57800;SDS011;43627;42.728;23.256;2023-04-25T06:07:17;7.15;;;3.65;;
57800;SDS011;43627;42.728;23.256;2023-04-25T06:09:47;6.63;;;3.55;;
57800;SDS011;43627;42.728;23.256;2023-04-25T06:12:14;8.35;;;3.40;;
57800;SDS011;43627;42.728;23.256;2023-04-25T06:14:41;6.68;;;4.68;;
57800;SDS011;43627;42.728;23.256;2023-04-25T06:17:08;5.97;;;4.07;;
57800;SDS011;43627;42.728;23.256;2023-04-25T06:19:37;6.75;;;4.13;;
57800;SDS011;43627;42.728;23.256;2023-04-25T06:22:04;12.18;;;5.00;;
57800;SDS011;43627;42.728;23.256;2023-04-25T06:24:31;5.80;;;4.35;;
57800;SDS011;43627;42.728;23.256;2023-04-25T06:26:57;9.85;;;4.85;;
57800;SDS011;43627;42.728;23.256;2023-04-25T06:29:24;7.15;;;4.28;;
57800;SDS011;43627;42.728;23.256;2023-04-25T06:31:51;6.15;;;3.85;;
57800;SDS011;43627;42.728;23.256;2023-04-25T06:34:18;7.22;;;4.18;;
57800;SDS011;43627;42.728;23.256;2023-04-25T06:36:45;11.30;;;3.83;;
57800;SDS011;43627;42.728;23.256;2023-04-25T06:39:11;8.23;;;4.07;;
57800;SDS011;43627;42.728;23.256;2023-04-25T06:41:38;7.22;;;4.00;;
57800;SDS011;43627;42.728;23.256;2023-04-25T06:44:04;7.15;;;3.72;;
57800;SDS011;43627;42.728;23.256;2023-04-25T06:46:32;6.65;;;4.30;;
57800;SDS011;43627;42.728;23.256;2023-04-25T06:48:58;7.90;;;4.00;;
57800;SDS011;43627;42.728;23.256;2023-04-25T06:51:25;7.07;;;4.22;;
57800;SDS011;43627;42.728;23.256;2023-04-25T06:53:55;7.38;;;4.72;;
57800;SDS011;43627;42.728;23.256;2023-04-25T06:56:22;7.82;;;4.97;;
57800;SDS011;43627;42.728;23.256;2023-04-25T06:58:49;15.30;;;7.00;;
57800;SDS011;43627;42.728;23.256;2023-04-25T07:01:16;12.52;;;6.80;;
57800;SDS011;43627;42.728;23.256;2023-04-25T07:03:43;13.75;;;7.63;;
57800;SDS011;43627;42.728;23.256;2023-04-25T07:06:10;13.90;;;7.50;;
57800;SDS011;43627;42.728;23.256;2023-04-25T07:08:37;13.65;;;8.23;;
57800;SDS011;43627;42.728;23.256;2023-04-25T07:11:03;13.85;;;7.60;;
57800;SDS011;43627;42.728;23.256;2023-04-25T07:13:30;13.00;;;7.80;;
57800;SDS011;43627;42.728;23.256;2023-04-25T07:15:57;13.27;;;7.97;;
57800;SDS011;43627;42.728;23.256;2023-04-25T07:18:24;13.05;;;7.32;;
57800;SDS011;43627;42.728;23.256;2023-04-25T07:20:50;11.88;;;6.78;;
57800;SDS011;43627;42.728;23.256;2023-04-25T07:23:17;8.65;;;6.47;;
57800;SDS011;43627;42.728;23.256;2023-04-25T07:25:43;16.33;;;8.15;;
57800;SDS011;43627;42.728;23.256;2023-04-25T07:28:10;12.27;;;7.85;;
57800;SDS011;43627;42.728;23.256;2023-04-25T07:30:37;12.90;;;7.80;;
57800;SDS011;43627;42.728;23.256;2023-04-25T07:33:03;12.43;;;7.75;;
57800;SDS011;43627;42.728;23.256;2023-04-25T07:35:30;12.25;;;7.40;;
57800;SDS011;43627;42.728;23.256;2023-04-25T07:37:57;12.93;;;7.65;;
57800;SDS011;43627;42.728;23.256;2023-04-25T07:40:25;13.00;;;7.20;;
57800;SDS011;43627;42.728;23.256;2023-04-25T07:42:52;16.15;;;7.95;;
57800;SDS011;43627;42.728;23.256;2023-04-25T07:45:18;11.40;;;8.13;;
57800;SDS011;43627;42.728;23.256;2023-04-25T07:47:45;14.35;;;7.65;;
57800;SDS011;43627;42.728;23.256;2023-04-25T07:50:12;14.82;;;8.15;;
57800;SDS011;43627;42.728;23.256;2023-04-25T07:52:39;10.48;;;7.00;;
57800;SDS011;43627;42.728;23.256;2023-04-25T07:55:05;17.58;;;7.40;;
57800;SDS011;43627;42.728;23.256;2023-04-25T07:57:32;14.07;;;6.80;;
57800;SDS011;43627;42.728;23.256;2023-04-25T07:59:59;8.90;;;6.45;;
57800;SDS011;43627;42.728;23.256;2023-04-25T08:02:26;7.65;;;6.00;;
57800;SDS011;43627;42.728;23.256;2023-04-25T08:04:54;11.27;;;6.95;;
57800;SDS011;43627;42.728;23.256;2023-04-25T08:07:21;8.82;;;6.13;;
57800;SDS011;43627;42.728;23.256;2023-04-25T08:09:48;10.10;;;6.53;;
57800;SDS011;43627;42.728;23.256;2023-04-25T08:12:15;15.88;;;7.25;;
57800;SDS011;43627;42.728;23.256;2023-04-25T08:14:41;17.63;;;6.10;;
57800;SDS011;43627;42.728;23.256;2023-04-25T08:17:09;10.40;;;6.18;;
57800;SDS011;43627;42.728;23.256;2023-04-25T08:19:35;9.50;;;5.78;;
57800;SDS011;43627;42.728;23.256;2023-04-25T08:22:02;8.45;;;5.90;;
57800;SDS011;43627;42.728;23.256;2023-04-25T08:24:29;9.60;;;5.38;;
57800;SDS011;43627;42.728;23.256;2023-04-25T08:26:56;10.70;;;6.47;;
57800;SDS011;43627;42.728;23.256;2023-04-25T08:29:23;10.80;;;6.38;;
57800;SDS011;43627;42.728;23.256;2023-04-25T08:31:51;9.32;;;5.57;;
57800;SDS011;43627;42.728;23.256;2023-04-25T08:34:21;15.52;;;6.72;;
57800;SDS011;43627;42.728;23.256;2023-04-25T08:36:48;10.93;;;7.00;;
57800;SDS011;43627;42.728;23.256;2023-04-25T08:39:15;9.82;;;6.43;;
57800;SDS011;43627;42.728;23.256;2023-04-25T08:41:42;10.18;;;6.63;;
57800;SDS011;43627;42.728;23.256;2023-04-25T08:44:10;10.52;;;6.63;;
57800;SDS011;43627;42.728;23.256;2023-04-25T08:46:37;9.73;;;6.43;;
57800;SDS011;43627;42.728;23.256;2023-04-25T08:49:07;12.40;;;6.10;;
57800;SDS011;43627;42.728;23.256;2023-04-25T08:51:42;9.02;;;5.80;;
57800;SDS011;43627;42.728;23.256;2023-04-25T08:54:16;9.55;;;6.10;;
57800;SDS011;43627;42.728;23.256;2023-04-25T08:57:03;12.30;;;6.50;;
57800;SDS011;43627;42.728;23.256;2023-04-25T08:59:31;9.43;;;4.32;;
57800;SDS011;43627;42.728;23.256;2023-04-25T09:01:58;8.50;;;3.97;;
57800;SDS011;43627;42.728;23.256;2023-04-25T09:04:26;8.63;;;4.05;;
57800;SDS011;43627;42.728;23.256;2023-04-25T09:06:53;9.30;;;4.68;;
57800;SDS011;43627;42.728;23.256;2023-04-25T09:09:20;6.22;;;4.53;;
57800;SDS011;43627;42.728;23.256;2023-04-25T09:11:50;7.15;;;4.65;;
57800;SDS011;43627;42.728;23.256;2023-04-25T09:14:20;7.35;;;4.35;;
57800;SDS011;43627;42.728;23.256;2023-04-25T09:16:58;8.95;;;3.80;;
57800;SDS011;43627;42.728;23.256;2023-04-25T09:19:30;5.25;;;2.83;;
57800;SDS011;43627;42.728;23.256;2023-04-25T09:22:07;5.97;;;2.42;;
57800;SDS011;43627;42.728;23.256;2023-04-25T09:24:35;4.43;;;2.67;;
57800;SDS011;43627;42.728;23.256;2023-04-25T09:27:13;5.07;;;3.08;;
57800;SDS011;43627;42.728;23.256;2023-04-25T09:29:44;8.48;;;2.92;;
57800;SDS011;43627;42.728;23.256;2023-04-25T09:34:47;2.42;;;1.90;;
57800;SDS011;43627;42.728;23.256;2023-04-25T09:37:28;3.72;;;1.85;;
57800;SDS011;43627;42.728;23.256;2023-04-25T09:39:56;2.47;;;1.85;;
57800;SDS011;43627;42.728;23.256;2023-04-25T09:42:27;2.15;;;1.50;;
57800;SDS011;43627;42.728;23.256;2023-04-25T09:44:55;1.55;;;1.20;;
57800;SDS011;43627;42.728;23.256;2023-04-25T09:47:23;2.70;;;1.60;;
57800;SDS011;43627;42.728;23.256;2023-04-25T09:49:53;1.67;;;0.80;;
57800;SDS011;43627;42.728;23.256;2023-04-25T09:52:22;2.05;;;1.45;;
57800;SDS011;43627;42.728;23.256;2023-04-25T09:54:51;2.60;;;1.50;;
57800;SDS011;43627;42.728;23.256;2023-04-25T09:57:22;2.22;;;1.60;;
57800;SDS011;43627;42.728;23.256;2023-04-25T09:59:53;1.17;;;1.00;;
57800;SDS011;43627;42.728;23.256;2023-04-25T10:02:22;1.87;;;0.97;;
57800;SDS011;43627;42.728;23.256;2023-04-25T10:04:54;0.88;;;0.70;;
57800;SDS011;43627;42.728;23.256;2023-04-25T10:07:23;1.52;;;1.00;;
57800;SDS011;43627;42.728;23.256;2023-04-25T10:12:26;4.40;;;0.93;;
57800;SDS011;43627;42.728;23.256;2023-04-25T10:14:54;6.75;;;1.25;;
57800;SDS011;43627;42.728;23.256;2023-04-25T10:17:21;1.33;;;0.95;;
57800;SDS011;43627;42.728;23.256;2023-04-25T10:19:49;1.67;;;0.90;;
57800;SDS011;43627;42.728;23.256;2023-04-25T10:22:18;2.95;;;1.20;;
57800;SDS011;43627;42.728;23.256;2023-04-25T10:24:52;1.85;;;0.90;;
57800;SDS011;43627;42.728;23.256;2023-04-25T10:27:19;0.80;;;0.57;;
57800;SDS011;43627;42.728;23.256;2023-04-25T10:29:46;4.95;;;0.60;;
57800;SDS011;43627;42.728;23.256;2023-04-25T10:32:26;2.33;;;0.80;;
57800;SDS011;43627;42.728;23.256;2023-04-25T10:34:56;1.63;;;1.00;;
57800;SDS011;43627;42.728;23.256;2023-04-25T10:37:23;1.52;;;0.70;;
57800;SDS011;43627;42.728;23.256;2023-04-25T10:39:50;2.75;;;0.70;;
57800;SDS011;43627;42.728;23.256;2023-04-25T10:42:19;2.25;;;0.75;;
57800;SDS011;43627;42.728;23.256;2023-04-25T10:45:00;0.52;;;0.50;;
57800;SDS011;43627;42.728;23.256;2023-04-25T10:47:35;2.25;;;0.68;;
57800;SDS011;43627;42.728;23.256;2023-04-25T10:50:07;1.35;;;0.95;;
57800;SDS011;43627;42.728;23.256;2023-04-25T10:52:34;8.95;;;0.70;;
57800;SDS011;43627;42.728;23.256;2023-04-25T10:55:04;0.32;;;0.32;;
57800;SDS011;43627;42.728;23.256;2023-04-25T10:57:32;3.30;;;0.60;;
57800;SDS011;43627;42.728;23.256;2023-04-25T11:07:55;0.82;;;0.40;;
57800;SDS011;43627;42.728;23.256;2023-04-25T11:10:33;1.27;;;0.60;;
57800;SDS011;43627;42.728;23.256;2023-04-25T11:13:03;1.27;;;0.75;;
57800;SDS011;43627;42.728;23.256;2023-04-25T11:15:30;1.60;;;0.50;;
57800;SDS011;43627;42.728;23.256;2023-04-25T11:17:57;2.53;;;0.55;;
57800;SDS011;43627;42.728;23.256;2023-04-25T11:20:25;2.58;;;0.70;;
57800;SDS011;43627;42.728;23.256;2023-04-25T11:22:54;0.77;;;0.50;;
57800;SDS011;43627;42.728;23.256;2023-04-25T11:25:25;0.88;;;0.30;;
57800;SDS011;43627;42.728;23.256;2023-04-25T11:27:55;1.45;;;0.68;;
57800;SDS011;43627;42.728;23.256;2023-04-25T11:30:24;1.83;;;0.75;;
57800;SDS011;43627;42.728;23.256;2023-04-25T11:32:51;0.82;;;0.60;;
57800;SDS011;43627;42.728;23.256;2023-04-25T11:35:19;3.90;;;0.82;;
57800;SDS011;43627;42.728;23.256;2023-04-25T11:37:47;15.38;;;3.10;;
57800;SDS011;43627;42.728;23.256;2023-04-25T11:40:14;43.35;;;9.10;;
57800;SDS011;43627;42.728;23.256;2023-04-25T11:42:45;20.90;;;5.05;;
57800;SDS011;43627;42.728;23.256;2023-04-25T11:45:13;45.58;;;8.02;;
57800;SDS011;43627;42.728;23.256;2023-04-25T11:47:40;3.38;;;1.10;;
57800;SDS011;43627;42.728;23.256;2023-04-25T11:50:08;0.43;;;0.30;;
57800;SDS011;43627;42.728;23.256;2023-04-25T11:52:40;3.22;;;0.80;;
57800;SDS011;43627;42.728;23.256;2023-04-25T11:55:08;0.95;;;0.60;;
57800;SDS011;43627;42.728;23.256;2023-04-25T11:57:40;0.35;;;0.30;;
57800;SDS011;43627;42.728;23.256;2023-04-25T12:00:13;0.77;;;0.50;;
57800;SDS011;43627;42.728;23.256;2023-04-25T12:02:45;0.30;;;0.20;;
57800;SDS011;43627;42.728;23.256;2023-04-25T12:05:14;0.80;;;0.30;;
57800;SDS011;43627;42.728;23.256;2023-04-25T12:07:58;1.52;;;0.38;;
57800;SDS011;43627;42.728;23.256;2023-04-25T12:10:36;0.63;;;0.28;;
57800;SDS011;43627;42.728;23.256;2023-04-25T12:13:19;0.38;;;0.30;;
57800;SDS011;43627;42.728;23.256;2023-04-25T12:15:47;1.73;;;0.57;;
57800;SDS011;43627;42.728;23.256;2023-04-25T12:18:18;3.00;;;0.50;;
57800;SDS011;43627;42.728;23.256;2023-04-25T12:20:46;1.48;;;0.73;;
57800;SDS011;43627;42.728;23.256;2023-04-25T12:23:12;1.60;;;0.40;;
57800;SDS011;43627;42.728;23.256;2023-04-25T12:25:40;1.95;;;0.82;;
57800;SDS011;43627;42.728;23.256;2023-04-25T12:30:53;6.82;;;0.82;;
57800;SDS011;43627;42.728;23.256;2023-04-25T12:33:22;1.27;;;0.40;;
57800;SDS011;43627;42.728;23.256;2023-04-25T12:35:48;0.38;;;0.38;;
57800;SDS011;43627;42.728;23.256;2023-04-25T12:38:22;0.60;;;0.30;;
57800;SDS011;43627;42.728;23.256;2023-04-25T12:40:52;0.55;;;0.30;;
57800;SDS011;43627;42.728;23.256;2023-04-25T12:43:19;2.65;;;0.82;;
57800;SDS011;43627;42.728;23.256;2023-04-25T12:45:50;1.42;;;0.70;;
57800;SDS011;43627;42.728;23.256;2023-04-25T12:48:20;2.78;;;0.85;;
57800;SDS011;43627;42.728;23.256;2023-04-25T12:50:48;0.90;;;0.52;;
57800;SDS011;43627;42.728;23.256;2023-04-25T12:53:19;5.32;;;0.88;;
57800;SDS011;43627;42.728;23.256;2023-04-25T12:55:47;2.40;;;1.33;;
57800;SDS011;43627;42.728;23.256;2023-04-25T12:58:15;1.73;;;0.88;;
57800;SDS011;43627;42.728;23.256;2023-04-25T13:00:42;1.60;;;0.93;;
57800;SDS011;43627;42.728;23.256;2023-04-25T13:03:09;2.08;;;1.10;;
57800;SDS011;43627;42.728;23.256;2023-04-25T13:05:37;1.50;;;0.98;;
57800;SDS011;43627;42.728;23.256;2023-04-25T13:08:05;3.58;;;1.88;;
57800;SDS011;43627;42.728;23.256;2023-04-25T13:10:31;3.53;;;1.90;;
57800;SDS011;43627;42.728;23.256;2023-04-25T13:13:00;3.58;;;1.48;;
57800;SDS011;43627;42.728;23.256;2023-04-25T13:15:27;4.30;;;1.83;;
57800;SDS011;43627;42.728;23.256;2023-04-25T13:17:54;6.78;;;2.25;;
57800;SDS011;43627;42.728;23.256;2023-04-25T13:20:22;5.50;;;1.85;;
57800;SDS011;43627;42.728;23.256;2023-04-25T13:22:49;2.65;;;1.10;;
57800;SDS011;43627;42.728;23.256;2023-04-25T13:25:16;1.92;;;1.33;;
57800;SDS011;43627;42.728;23.256;2023-04-25T13:27:42;2.90;;;1.38;;
57800;SDS011;43627;42.728;23.256;2023-04-25T13:30:10;3.53;;;0.82;;
57800;SDS011;43627;42.728;23.256;2023-04-25T13:32:37;1.85;;;1.20;;
57800;SDS011;43627;42.728;23.256;2023-04-25T13:35:06;2.92;;;0.80;;
57800;SDS011;43627;42.728;23.256;2023-04-25T13:37:36;2.97;;;1.23;;
57800;SDS011;43627;42.728;23.256;2023-04-25T13:40:04;3.90;;;1.45;;
57800;SDS011;43627;42.728;23.256;2023-04-25T13:42:36;2.83;;;1.25;;
57800;SDS011;43627;42.728;23.256;2023-04-25T13:45:03;4.13;;;1.40;;
57800;SDS011;43627;42.728;23.256;2023-04-25T13:47:30;2.42;;;1.42;;
57800;SDS011;43627;42.728;23.256;2023-04-25T13:49:57;1.15;;;0.93;;
57800;SDS011;43627;42.728;23.256;2023-04-25T13:52:24;5.10;;;1.15;;
57800;SDS011;43627;42.728;23.256;2023-04-25T13:54:51;1.80;;;1.05;;
57800;SDS011;43627;42.728;23.256;2023-04-25T13:57:17;1.33;;;0.70;;
57800;SDS011;43627;42.728;23.256;2023-04-25T13:59:44;1.92;;;0.90;;
57800;SDS011;43627;42.728;23.256;2023-04-25T14:02:12;2.85;;;1.10;;
57800;SDS011;43627;42.728;23.256;2023-04-25T14:04:40;1.88;;;1.10;;
57800;SDS011;43627;42.728;23.256;2023-04-25T14:07:07;1.58;;;1.10;;
57800;SDS011;43627;42.728;23.256;2023-04-25T14:09:34;3.80;;;1.05;;
57800;SDS011;43627;42.728;23.256;2023-04-25T14:12:01;1.33;;;0.90;;
57800;SDS011;43627;42.728;23.256;2023-04-25T14:14:28;6.05;;;1.42;;
57800;SDS011;43627;42.728;23.256;2023-04-25T14:16:55;1.65;;;0.80;;
57800;SDS011;43627;42.728;23.256;2023-04-25T14:19:23;0.95;;;0.63;;
57800;SDS011;43627;42.728;23.256;2023-04-25T14:21:50;2.70;;;0.90;;
57800;SDS011;43627;42.728;23.256;2023-04-25T14:24:17;1.95;;;1.00;;
57800;SDS011;43627;42.728;23.256;2023-04-25T14:26:44;1.10;;;0.75;;
57800;SDS011;43627;42.728;23.256;2023-04-25T14:29:11;2.15;;;1.27;;
57800;SDS011;43627;42.728;23.256;2023-04-25T14:31:38;1.38;;;0.73;;
57800;SDS011;43627;42.728;23.256;2023-04-25T14:34:06;1.05;;;0.63;;
57800;SDS011;43627;42.728;23.256;2023-04-25T14:36:35;2.33;;;0.75;;
57800;SDS011;43627;42.728;23.256;2023-04-25T14:39:02;3.45;;;1.80;;
57800;SDS011;43627;42.728;23.256;2023-04-25T14:41:31;1.45;;;0.95;;
57800;SDS011;43627;42.728;23.256;2023-04-25T14:43:58;1.73;;;0.95;;
57800;SDS011;43627;42.728;23.256;2023-04-25T14:46:25;2.30;;;0.70;;
57800;SDS011;43627;42.728;23.256;2023-04-25T14:48:52;0.77;;;0.52;;
57800;SDS011;43627;42.728;23.256;2023-04-25T14:51:19;1.35;;;0.70;;
57800;SDS011;43627;42.728;23.256;2023-04-25T14:53:48;3.05;;;1.35;;